sensor_id;sensor_type;location;lat;lon;timestamp;pressure;altitude;pressure_sealevel;temperature;humidity
48364;BME280;34170;54.364;18.582;2023-05-19T00:02:17;101669.38;;;8.95;97.61
48364;BME280;34170;54.364;18.582;2023-05-19T00:04:48;101655.25;;;8.78;98.44
48364;BME280;34170;54.364;18.582;2023-05-19T00:07:17;101653.72;;;8.74;99.62
48364;BME280;34170;54.364;18.582;2023-05-19T00:09:47;101658.50;;;8.84;100.00
48364;BME280;34170;54.364;18.582;2023-05-19T00:12:14;101663.53;;;8.88;99.05
48364;BME280;34170;54.364;18.582;2023-05-19T00:14:42;101647.59;;;8.72;99.49
48364;BME280;34170;54.364;18.582;2023-05-19T00:17:09;101649.94;;;8.64;99.49
48364;BME280;34170;54.364;18.582;2023-05-19T00:19:37;101650.16;;;8.47;100.00
48364;BME280;34170;54.364;18.582;2023-05-19T00:22:05;101652.31;;;8.40;100.00
48364;BME280;34170;54.364;18.582;2023-05-19T00:24:33;101664.31;;;8.20;100.00
48364;BME280;34170;54.364;18.582;2023-05-19T00:27:00;101667.06;;;8.18;100.00
48364;BME280;34170;54.364;18.582;2023-05-19T00:29:28;101665.75;;;8.11;100.00
48364;BME280;34170;54.364;18.582;2023-05-19T00:31:56;101667.47;;;8.12;100.00
48364;BME280;34170;54.364;18.582;2023-05-19T00:34:23;101668.72;;;8.07;100.00
48364;BME280;34170;54.364;18.582;2023-05-19T00:36:51;101670.16;;;7.98;100.00
48364;BME280;34170;54.364;18.582;2023-05-19T00:39:18;101676.44;;;7.97;100.00
48364;BME280;34170;54.364;18.582;2023-05-19T00:41:46;101662.78;;;7.87;100.00
48364;BME280;34170;54.364;18.582;2023-05-19T00:44:14;101662.09;;;7.83;100.00
48364;BME280;34170;54.364;18.582;2023-05-19T00:46:41;101667.25;;;7.87;100.00
48364;BME280;34170;54.364;18.582;2023-05-19T00:49:09;101671.56;;;7.89;100.00
48364;BME280;34170;54.364;18.582;2023-05-19T00:51:36;101662.63;;;7.74;100.00
48364;BME280;34170;54.364;18.582;2023-05-19T00:54:04;101665.31;;;7.74;100.00
48364;BME280;34170;54.364;18.582;2023-05-19T00:56:32;101657.00;;;7.64;100.00
48364;BME280;34170;54.364;18.582;2023-05-19T00:58:59;101661.97;;;7.71;100.00
48364;BME280;34170;54.364;18.582;2023-05-19T01:01:27;101669.56;;;7.78;100.00
48364;BME280;34170;54.364;18.582;2023-05-19T01:03:55;101656.94;;;7.80;100.00
48364;BME280;34170;54.364;18.582;2023-05-19T01:06:25;101668.88;;;7.75;100.00
48364;BME280;34170;54.364;18.582;2023-05-19T01:08:54;101654.81;;;7.71;100.00
48364;BME280;34170;54.364;18.582;2023-05-19T01:11:23;101659.69;;;7.79;100.00
48364;BME280;34170;54.364;18.582;2023-05-19T01:13:51;101667.63;;;7.80;100.00
48364;BME280;34170;54.364;18.582;2023-05-19T01:16:36;101663.81;;;7.85;100.00
48364;BME280;34170;54.364;18.582;2023-05-19T01:22:26;101664.78;;;8.12;100.00
48364;BME280;34170;54.364;18.582;2023-05-19T01:30:40;101670.34;;;8.09;100.00
48364;BME280;34170;54.364;18.582;2023-05-19T01:33:11;101669.84;;;8.17;100.00
48364;BME280;34170;54.364;18.582;2023-05-19T01:35:43;101662.69;;;8.32;100.00
48364;BME280;34170;54.364;18.582;2023-05-19T01:38:12;101656.34;;;8.33;100.00
48364;BME280;34170;54.364;18.582;2023-05-19T01:40:43;101653.97;;;8.28;100.00
48364;BME280;34170;54.364;18.582;2023-05-19T01:43:16;101656.44;;;8.31;100.00
48364;BME280;34170;54.364;18.582;2023-05-19T01:45:45;101658.47;;;8.42;100.00
48364;BME280;34170;54.364;18.582;2023-05-19T01:48:14;101654.66;;;8.46;100.00
48364;BME280;34170;54.364;18.582;2023-05-19T01:50:42;101663.78;;;8.71;100.00
48364;BME280;34170;54.364;18.582;2023-05-19T01:53:09;101651.25;;;8.71;100.00
48364;BME280;34170;54.364;18.582;2023-05-19T01:55:49;101661.50;;;8.92;100.00
48364;BME280;34170;54.364;18.582;2023-05-19T02:09:03;101647.81;;;8.96;100.00
48364;BME280;34170;54.364;18.582;2023-05-19T02:11:37;101659.53;;;9.08;100.00
48364;BME280;34170;54.364;18.582;2023-05-19T02:14:29;101642.06;;;9.15;100.00
48364;BME280;34170;54.364;18.582;2023-05-19T02:16:59;101653.13;;;9.11;100.00
48364;BME280;34170;54.364;18.582;2023-05-19T02:19:31;101640.69;;;9.23;100.00
48364;BME280;34170;54.364;18.582;2023-05-19T02:21:59;101640.81;;;9.21;100.00
48364;BME280;34170;54.364;18.582;2023-05-19T02:24:26;101654.34;;;9.32;100.00
48364;BME280;34170;54.364;18.582;2023-05-19T02:26:54;101651.56;;;9.34;99.96
48364;BME280;34170;54.364;18.582;2023-05-19T02:29:21;101647.72;;;9.38;99.66
48364;BME280;34170;54.364;18.582;2023-05-19T02:31:49;101642.78;;;9.32;98.68
48364;BME280;34170;54.364;18.582;2023-05-19T02:34:18;101642.53;;;9.35;98.98
48364;BME280;34170;54.364;18.582;2023-05-19T02:36:45;101645.78;;;9.40;98.06
48364;BME280;34170;54.364;18.582;2023-05-19T02:39:15;101643.94;;;9.41;98.41
48364;BME280;34170;54.364;18.582;2023-05-19T02:41:43;101642.31;;;9.25;99.10
48364;BME280;34170;54.364;18.582;2023-05-19T02:44:10;101632.09;;;9.18;99.71
48364;BME280;34170;54.364;18.582;2023-05-19T02:46:38;101633.50;;;9.23;99.38
48364;BME280;34170;54.364;18.582;2023-05-19T02:49:05;101645.56;;;9.30;98.71
48364;BME280;34170;54.364;18.582;2023-05-19T02:51:33;101640.38;;;9.27;98.97
48364;BME280;34170;54.364;18.582;2023-05-19T02:54:01;101637.81;;;9.39;nan
48364;BME280;34170;54.364;18.582;2023-05-19T02:56:28;101630.50;;;9.41;97.51
48364;BME280;34170;54.364;18.582;2023-05-19T02:58:55;101636.13;;;9.50;96.55
48364;BME280;34170;54.364;18.582;2023-05-19T03:01:24;101641.75;;;9.73;95.32
48364;BME280;34170;54.364;18.582;2023-05-19T03:03:52;101652.06;;;9.79;94.89
48364;BME280;34170;54.364;18.582;2023-05-19T03:06:19;101646.97;;;9.62;94.27
48364;BME280;34170;54.364;18.582;2023-05-19T03:08:49;101645.94;;;9.64;94.30
48364;BME280;34170;54.364;18.582;2023-05-19T03:11:17;101642.81;;;9.70;93.78
48364;BME280;34170;54.364;18.582;2023-05-19T03:13:44;101643.44;;;9.74;93.61
48364;BME280;34170;54.364;18.582;2023-05-19T03:16:12;101638.53;;;9.81;92.43
48364;BME280;34170;54.364;18.582;2023-05-19T03:18:40;101637.66;;;9.93;91.99
48364;BME280;34170;54.364;18.582;2023-05-19T03:21:08;101651.72;;;10.09;91.07
48364;BME280;34170;54.364;18.582;2023-05-19T03:23:35;101650.84;;;10.22;89.66
48364;BME280;34170;54.364;18.582;2023-05-19T03:26:03;101638.06;;;10.13;88.82
48364;BME280;34170;54.364;18.582;2023-05-19T03:28:31;101647.97;;;10.38;88.27
48364;BME280;34170;54.364;18.582;2023-05-19T03:30:58;101638.69;;;10.42;86.53
48364;BME280;34170;54.364;18.582;2023-05-19T03:33:31;101637.31;;;10.36;86.67
48364;BME280;34170;54.364;18.582;2023-05-19T03:35:59;101649.00;;;10.48;86.79
48364;BME280;34170;54.364;18.582;2023-05-19T03:38:29;101645.13;;;10.76;85.49
48364;BME280;34170;54.364;18.582;2023-05-19T03:40:57;101647.03;;;10.63;85.11
48364;BME280;34170;54.364;18.582;2023-05-19T03:43:24;101663.41;;;11.08;83.86
48364;BME280;34170;54.364;18.582;2023-05-19T03:45:57;101658.25;;;11.05;82.30
48364;BME280;34170;54.364;18.582;2023-05-19T03:48:56;101668.38;;;11.14;82.37
48364;BME280;34170;54.364;18.582;2023-05-19T03:51:59;101666.16;;;11.19;81.80
48364;BME280;34170;54.364;18.582;2023-05-19T03:54:44;101666.75;;;11.36;80.37
48364;BME280;34170;54.364;18.582;2023-05-19T03:57:12;101667.28;;;11.52;79.67
48364;BME280;34170;54.364;18.582;2023-05-19T03:59:39;101668.41;;;11.61;79.10
48364;BME280;34170;54.364;18.582;2023-05-19T04:02:07;101654.94;;;11.61;76.91
48364;BME280;34170;54.364;18.582;2023-05-19T04:04:35;101658.97;;;11.67;76.70
48364;BME280;34170;54.364;18.582;2023-05-19T04:07:04;101667.06;;;11.67;76.53
48364;BME280;34170;54.364;18.582;2023-05-19T04:09:31;101662.94;;;11.85;76.05
48364;BME280;34170;54.364;18.582;2023-05-19T04:12:01;101668.53;;;11.71;76.06
48364;BME280;34170;54.364;18.582;2023-05-19T04:14:29;101659.00;;;11.89;75.63
48364;BME280;34170;54.364;18.582;2023-05-19T04:16:56;101662.19;;;11.83;76.23
48364;BME280;34170;54.364;18.582;2023-05-19T04:19:26;101654.34;;;11.80;75.22
48364;BME280;34170;54.364;18.582;2023-05-19T04:21:54;101660.97;;;11.76;74.21
48364;BME280;34170;54.364;18.582;2023-05-19T04:24:23;101654.72;;;11.87;74.82
48364;BME280;34170;54.364;18.582;2023-05-19T04:26:50;101649.44;;;11.74;75.29
48364;BME280;34170;54.364;18.582;2023-05-19T04:29:18;101660.78;;;11.90;73.88
48364;BME280;34170;54.364;18.582;2023-05-19T04:31:46;101656.13;;;12.04;72.64
48364;BME280;34170;54.364;18.582;2023-05-19T04:34:15;101657.84;;;12.16;72.36
48364;BME280;34170;54.364;18.582;2023-05-19T04:36:46;101652.94;;;12.44;71.31
48364;BME280;34170;54.364;18.582;2023-05-19T04:39:19;101651.59;;;12.38;70.76
48364;BME280;34170;54.364;18.582;2023-05-19T04:41:48;101652.69;;;12.35;70.78
48364;BME280;34170;54.364;18.582;2023-05-19T04:44:15;101659.34;;;12.20;71.70
48364;BME280;34170;54.364;18.582;2023-05-19T04:46:47;101667.19;;;12.34;71.14
48364;BME280;34170;54.364;18.582;2023-05-19T04:49:16;101661.16;;;12.42;72.11
48364;BME280;34170;54.364;18.582;2023-05-19T04:51:45;101663.94;;;12.52;71.02
48364;BME280;34170;54.364;18.582;2023-05-19T04:54:19;101665.94;;;12.38;71.72
48364;BME280;34170;54.364;18.582;2023-05-19T04:56:47;101651.69;;;12.70;70.91
48364;BME280;34170;54.364;18.582;2023-05-19T04:59:16;101668.84;;;12.69;71.14
48364;BME280;34170;54.364;18.582;2023-05-19T05:01:44;101663.59;;;13.11;68.50
48364;BME280;34170;54.364;18.582;2023-05-19T05:04:12;101671.22;;;13.06;68.94
48364;BME280;34170;54.364;18.582;2023-05-19T05:06:40;101663.13;;;13.39;67.74
48364;BME280;34170;54.364;18.582;2023-05-19T05:09:08;101677.03;;;12.90;70.56
48364;BME280;34170;54.364;18.582;2023-05-19T05:11:37;101670.19;;;13.19;68.16
48364;BME280;34170;54.364;18.582;2023-05-19T05:14:04;101679.97;;;13.63;67.52
48364;BME280;34170;54.364;18.582;2023-05-19T05:16:32;101683.19;;;13.78;66.56
48364;BME280;34170;54.364;18.582;2023-05-19T05:19:00;101675.75;;;14.22;64.25
48364;BME280;34170;54.364;18.582;2023-05-19T05:21:28;101682.72;;;15.16;58.61
48364;BME280;34170;54.364;18.582;2023-05-19T05:23:58;101678.56;;;15.02;59.02
48364;BME280;34170;54.364;18.582;2023-05-19T05:26:30;101685.47;;;16.22;55.45
48364;BME280;34170;54.364;18.582;2023-05-19T05:29:00;101677.56;;;17.11;51.51
48364;BME280;34170;54.364;18.582;2023-05-19T05:31:28;101679.84;;;17.34;49.69
48364;BME280;34170;54.364;18.582;2023-05-19T05:33:57;101680.34;;;17.73;48.55
48364;BME280;34170;54.364;18.582;2023-05-19T05:36:28;101668.13;;;19.23;46.26
48364;BME280;34170;54.364;18.582;2023-05-19T05:38:56;101676.78;;;20.17;43.49
48364;BME280;34170;54.364;18.582;2023-05-19T05:41:25;101686.09;;;20.40;42.24
48364;BME280;34170;54.364;18.582;2023-05-19T05:43:53;101688.31;;;21.15;40.26
48364;BME280;34170;54.364;18.582;2023-05-19T05:46:22;101683.19;;;21.12;39.94
48364;BME280;34170;54.364;18.582;2023-05-19T05:48:50;101687.50;;;19.04;43.15
48364;BME280;34170;54.364;18.582;2023-05-19T05:51:21;101681.16;;;18.53;45.02
48364;BME280;34170;54.364;18.582;2023-05-19T05:53:51;101686.19;;;19.33;44.37
48364;BME280;34170;54.364;18.582;2023-05-19T05:56:21;101683.81;;;19.38;43.68
48364;BME280;34170;54.364;18.582;2023-05-19T05:58:52;101686.09;;;20.40;41.91
48364;BME280;34170;54.364;18.582;2023-05-19T06:01:20;101682.22;;;21.05;40.35
48364;BME280;34170;54.364;18.582;2023-05-19T06:03:51;101682.75;;;22.22;37.47
48364;BME280;34170;54.364;18.582;2023-05-19T06:06:22;101686.66;;;22.94;37.14
48364;BME280;34170;54.364;18.582;2023-05-19T06:08:51;101694.38;;;22.24;37.30
48364;BME280;34170;54.364;18.582;2023-05-19T06:11:19;101692.50;;;21.26;39.02
48364;BME280;34170;54.364;18.582;2023-05-19T06:13:47;101678.69;;;20.00;41.46
48364;BME280;34170;54.364;18.582;2023-05-19T06:16:30;101694.41;;;19.82;42.66
48364;BME280;34170;54.364;18.582;2023-05-19T06:18:57;101685.53;;;19.88;42.50
48364;BME280;34170;54.364;18.582;2023-05-19T06:21:25;101687.38;;;20.12;43.33
48364;BME280;34170;54.364;18.582;2023-05-19T06:23:53;101691.31;;;21.28;40.19
48364;BME280;34170;54.364;18.582;2023-05-19T06:26:20;101701.63;;;21.87;38.11
48364;BME280;34170;54.364;18.582;2023-05-19T06:28:48;101704.69;;;22.07;39.16
48364;BME280;34170;54.364;18.582;2023-05-19T06:31:15;101714.13;;;23.52;35.74
48364;BME280;34170;54.364;18.582;2023-05-19T06:33:51;101705.47;;;24.62;34.29
48364;BME280;34170;54.364;18.582;2023-05-19T06:36:20;101711.50;;;24.85;33.60
48364;BME280;34170;54.364;18.582;2023-05-19T06:38:48;101715.75;;;25.96;31.51
48364;BME280;34170;54.364;18.582;2023-05-19T06:41:15;101712.03;;;26.69;29.95
48364;BME280;34170;54.364;18.582;2023-05-19T06:43:46;101702.06;;;25.21;31.49
48364;BME280;34170;54.364;18.582;2023-05-19T06:46:14;101704.16;;;23.94;34.08
48364;BME280;34170;54.364;18.582;2023-05-19T06:48:44;101706.59;;;25.62;31.38
48364;BME280;34170;54.364;18.582;2023-05-19T06:51:11;101703.88;;;23.83;33.53
48364;BME280;34170;54.364;18.582;2023-05-19T06:53:40;101705.78;;;24.45;32.67
48364;BME280;34170;54.364;18.582;2023-05-19T06:56:08;101700.66;;;25.52;30.96
48364;BME280;34170;54.364;18.582;2023-05-19T06:58:38;101698.25;;;24.61;32.38
48364;BME280;34170;54.364;18.582;2023-05-19T07:01:06;101705.31;;;25.45;32.07
48364;BME280;34170;54.364;18.582;2023-05-19T07:03:41;101711.97;;;24.96;32.31
48364;BME280;34170;54.364;18.582;2023-05-19T07:06:10;101694.78;;;24.10;33.59
48364;BME280;34170;54.364;18.582;2023-05-19T07:08:37;101694.88;;;24.24;32.58
48364;BME280;34170;54.364;18.582;2023-05-19T07:11:07;101684.78;;;23.53;35.20
48364;BME280;34170;54.364;18.582;2023-05-19T07:13:34;101696.84;;;25.33;32.73
48364;BME280;34170;54.364;18.582;2023-05-19T07:16:02;101688.97;;;23.49;34.78
48364;BME280;34170;54.364;18.582;2023-05-19T07:18:29;101701.19;;;21.61;37.63
48364;BME280;34170;54.364;18.582;2023-05-19T07:20:59;101695.22;;;22.84;35.73
48364;BME280;34170;54.364;18.582;2023-05-19T07:23:27;101687.38;;;24.87;32.69
48364;BME280;34170;54.364;18.582;2023-05-19T07:25:55;101694.19;;;24.91;31.32
48364;BME280;34170;54.364;18.582;2023-05-19T07:28:23;101701.91;;;25.29;30.58
48364;BME280;34170;54.364;18.582;2023-05-19T07:30:50;101698.25;;;24.54;32.75
48364;BME280;34170;54.364;18.582;2023-05-19T07:33:18;101687.91;;;24.63;32.13
48364;BME280;34170;54.364;18.582;2023-05-19T07:35:45;101692.47;;;23.86;33.57
48364;BME280;34170;54.364;18.582;2023-05-19T07:38:13;101684.91;;;22.87;34.65
48364;BME280;34170;54.364;18.582;2023-05-19T07:40:41;101683.78;;;23.17;34.49
48364;BME280;34170;54.364;18.582;2023-05-19T07:43:08;101685.81;;;22.42;35.00
48364;BME280;34170;54.364;18.582;2023-05-19T07:45:37;101689.31;;;20.91;38.02
48364;BME280;34170;54.364;18.582;2023-05-19T07:48:05;101676.50;;;19.71;40.73
48364;BME280;34170;54.364;18.582;2023-05-19T07:50:34;101684.16;;;19.43;42.24
48364;BME280;34170;54.364;18.582;2023-05-19T07:53:01;101684.66;;;19.30;43.69
48364;BME280;34170;54.364;18.582;2023-05-19T07:55:29;101690.56;;;17.53;46.79
48364;BME280;34170;54.364;18.582;2023-05-19T07:57:56;101692.78;;;17.76;47.37
48364;BME280;34170;54.364;18.582;2023-05-19T08:00:24;101694.50;;;17.59;47.64
48364;BME280;34170;54.364;18.582;2023-05-19T08:02:52;101692.25;;;17.90;47.71
48364;BME280;34170;54.364;18.582;2023-05-19T08:05:19;101701.03;;;16.94;49.61
48364;BME280;34170;54.364;18.582;2023-05-19T08:07:47;101694.34;;;16.79;50.53
48364;BME280;34170;54.364;18.582;2023-05-19T08:10:14;101700.06;;;16.86;51.31
48364;BME280;34170;54.364;18.582;2023-05-19T08:12:42;101700.09;;;17.04;50.41
48364;BME280;34170;54.364;18.582;2023-05-19T08:15:10;101700.00;;;16.68;52.29
48364;BME280;34170;54.364;18.582;2023-05-19T08:17:37;101687.84;;;17.00;51.36
48364;BME280;34170;54.364;18.582;2023-05-19T08:20:06;101698.53;;;16.08;52.30
48364;BME280;34170;54.364;18.582;2023-05-19T08:22:35;101695.97;;;16.44;53.23
48364;BME280;34170;54.364;18.582;2023-05-19T08:25:03;101681.59;;;16.62;53.33
48364;BME280;34170;54.364;18.582;2023-05-19T08:27:32;101692.19;;;16.83;52.35
48364;BME280;34170;54.364;18.582;2023-05-19T08:29:59;101685.38;;;17.24;50.26
48364;BME280;34170;54.364;18.582;2023-05-19T08:32:27;101697.31;;;16.95;50.61
48364;BME280;34170;54.364;18.582;2023-05-19T08:34:54;101689.00;;;17.33;49.67
48364;BME280;34170;54.364;18.582;2023-05-19T08:37:22;101695.69;;;17.21;50.22
48364;BME280;34170;54.364;18.582;2023-05-19T08:39:49;101686.34;;;16.87;51.00
48364;BME280;34170;54.364;18.582;2023-05-19T08:42:16;101689.88;;;16.32;54.45
48364;BME280;34170;54.364;18.582;2023-05-19T08:44:44;101692.53;;;16.70;53.10
48364;BME280;34170;54.364;18.582;2023-05-19T08:47:12;101683.31;;;16.90;52.86
48364;BME280;34170;54.364;18.582;2023-05-19T08:49:46;101687.72;;;16.64;53.70
48364;BME280;34170;54.364;18.582;2023-05-19T08:55:08;101688.16;;;15.35;59.53
48364;BME280;34170;54.364;18.582;2023-05-19T08:57:35;101685.28;;;14.88;62.51
48364;BME280;34170;54.364;18.582;2023-05-19T09:00:05;101678.25;;;14.76;64.65
48364;BME280;34170;54.364;18.582;2023-05-19T09:02:37;101677.38;;;14.75;65.33
48364;BME280;34170;54.364;18.582;2023-05-19T09:05:22;101689.25;;;14.53;68.84
48364;BME280;34170;54.364;18.582;2023-05-19T09:07:49;101695.81;;;14.91;66.83
48364;BME280;34170;54.364;18.582;2023-05-19T09:10:17;101693.72;;;15.24;66.93
48364;BME280;34170;54.364;18.582;2023-05-19T09:12:45;101703.44;;;15.46;63.54
48364;BME280;34170;54.364;18.582;2023-05-19T09:15:18;101695.16;;;15.87;61.86
48364;BME280;34170;54.364;18.582;2023-05-19T09:17:46;101690.97;;;16.02;60.82
48364;BME280;34170;54.364;18.582;2023-05-19T09:20:16;101679.81;;;16.43;59.24
48364;BME280;34170;54.364;18.582;2023-05-19T09:22:44;101686.03;;;16.25;59.25
48364;BME280;34170;54.364;18.582;2023-05-19T09:25:23;101689.88;;;16.32;60.60
48364;BME280;34170;54.364;18.582;2023-05-19T09:27:52;101678.03;;;15.57;61.40
48364;BME280;34170;54.364;18.582;2023-05-19T09:30:20;101677.59;;;15.52;62.88
48364;BME280;34170;54.364;18.582;2023-05-19T09:32:50;101681.13;;;16.01;60.79
48364;BME280;34170;54.364;18.582;2023-05-19T09:35:18;101684.53;;;16.03;58.69
48364;BME280;34170;54.364;18.582;2023-05-19T09:37:48;101675.03;;;15.50;61.37
48364;BME280;34170;54.364;18.582;2023-05-19T09:40:16;101690.47;;;15.40;63.05
48364;BME280;34170;54.364;18.582;2023-05-19T09:42:43;101687.41;;;16.01;59.71
48364;BME280;34170;54.364;18.582;2023-05-19T09:45:11;101675.75;;;15.13;62.35
48364;BME280;34170;54.364;18.582;2023-05-19T09:47:40;101672.00;;;15.73;60.33
48364;BME280;34170;54.364;18.582;2023-05-19T09:50:10;101678.34;;;16.20;58.60
48364;BME280;34170;54.364;18.582;2023-05-19T09:52:42;101671.16;;;15.92;58.70
48364;BME280;34170;54.364;18.582;2023-05-19T09:55:11;101670.72;;;16.34;57.39
48364;BME280;34170;54.364;18.582;2023-05-19T09:57:39;101668.53;;;16.47;53.73
48364;BME280;34170;54.364;18.582;2023-05-19T10:00:09;101686.09;;;16.43;54.27
48364;BME280;34170;54.364;18.582;2023-05-19T10:02:46;101679.69;;;16.44;54.04
48364;BME280;34170;54.364;18.582;2023-05-19T10:05:16;101692.41;;;16.44;52.90
48364;BME280;34170;54.364;18.582;2023-05-19T10:07:46;101675.75;;;15.23;58.08
48364;BME280;34170;54.364;18.582;2023-05-19T10:10:17;101678.72;;;15.69;57.24
48364;BME280;34170;54.364;18.582;2023-05-19T10:12:47;101680.25;;;16.10;55.26
48364;BME280;34170;54.364;18.582;2023-05-19T10:15:17;101679.69;;;16.07;54.66
48364;BME280;34170;54.364;18.582;2023-05-19T10:17:48;101678.16;;;15.36;58.88
48364;BME280;34170;54.364;18.582;2023-05-19T10:20:17;101675.75;;;15.23;58.88
48364;BME280;34170;54.364;18.582;2023-05-19T10:22:45;101675.41;;;14.87;59.55
48364;BME280;34170;54.364;18.582;2023-05-19T10:25:13;101665.13;;;14.71;59.51
48364;BME280;34170;54.364;18.582;2023-05-19T10:27:43;101673.59;;;14.57;59.86
48364;BME280;34170;54.364;18.582;2023-05-19T10:30:17;101679.28;;;13.92;63.08
48364;BME280;34170;54.364;18.582;2023-05-19T10:32:46;101660.63;;;14.20;61.32
48364;BME280;34170;54.364;18.582;2023-05-19T10:38:47;101668.59;;;14.83;60.21
48364;BME280;34170;54.364;18.582;2023-05-19T10:40:55;101668.28;;;14.86;59.35
48364;BME280;34170;54.364;18.582;2023-05-19T10:46:26;101661.13;;;14.75;57.34
48364;BME280;34170;54.364;18.582;2023-05-19T10:48:55;101666.31;;;14.57;57.32
48364;BME280;34170;54.364;18.582;2023-05-19T10:51:32;101663.75;;;14.15;59.24
48364;BME280;34170;54.364;18.582;2023-05-19T10:54:07;101664.97;;;14.32;58.85
48364;BME280;34170;54.364;18.582;2023-05-19T10:56:38;101661.69;;;14.69;58.02
48364;BME280;34170;54.364;18.582;2023-05-19T10:59:31;101663.75;;;14.86;57.38
48364;BME280;34170;54.364;18.582;2023-05-19T11:02:02;101660.31;;;14.94;55.27
48364;BME280;34170;54.364;18.582;2023-05-19T11:04:47;101656.06;;;15.01;54.58
48364;BME280;34170;54.364;18.582;2023-05-19T11:07:22;101664.19;;;15.01;54.32
48364;BME280;34170;54.364;18.582;2023-05-19T11:09:51;101657.50;;;15.15;53.61
48364;BME280;34170;54.364;18.582;2023-05-19T11:12:19;101654.34;;;15.20;53.13
48364;BME280;34170;54.364;18.582;2023-05-19T11:14:51;101657.91;;;15.11;52.77
48364;BME280;34170;54.364;18.582;2023-05-19T11:17:20;101665.06;;;15.31;52.24
48364;BME280;34170;54.364;18.582;2023-05-19T11:19:53;101663.56;;;14.38;54.31
48364;BME280;34170;54.364;18.582;2023-05-19T11:22:25;101664.00;;;14.02;55.05
48364;BME280;34170;54.364;18.582;2023-05-19T11:24:56;101665.28;;;14.48;53.93
48364;BME280;34170;54.364;18.582;2023-05-19T11:27:32;101668.00;;;14.48;53.80
48364;BME280;34170;54.364;18.582;2023-05-19T11:30:09;101666.72;;;14.43;52.56
48364;BME280;34170;54.364;18.582;2023-05-19T11:32:41;101642.19;;;14.35;53.57
48364;BME280;34170;54.364;18.582;2023-05-19T11:35:10;101667.06;;;14.28;52.89
48364;BME280;34170;54.364;18.582;2023-05-19T11:37:38;101666.34;;;14.17;54.06
48364;BME280;34170;54.364;18.582;2023-05-19T11:40:07;101665.31;;;14.18;53.83
48364;BME280;34170;54.364;18.582;2023-05-19T11:42:36;101668.16;;;14.16;52.38
48364;BME280;34170;54.364;18.582;2023-05-19T11:45:04;101678.53;;;14.11;53.02
48364;BME280;34170;54.364;18.582;2023-05-19T11:47:32;101675.91;;;14.00;52.57
48364;BME280;34170;54.364;18.582;2023-05-19T11:50:18;101684.69;;;14.54;50.74
48364;BME280;34170;54.364;18.582;2023-05-19T11:52:47;101672.31;;;13.68;53.29
48364;BME280;34170;54.364;18.582;2023-05-19T11:55:18;101690.75;;;14.05;52.71
48364;BME280;34170;54.364;18.582;2023-05-19T12:00:37;101685.56;;;14.54;50.30
48364;BME280;34170;54.364;18.582;2023-05-19T12:03:07;101694.13;;;14.28;49.95
48364;BME280;34170;54.364;18.582;2023-05-19T12:05:37;101701.28;;;14.60;48.89
48364;BME280;34170;54.364;18.582;2023-05-19T12:08:10;101699.34;;;14.82;49.37
48364;BME280;34170;54.364;18.582;2023-05-19T12:10:39;101690.56;;;15.09;47.84
48364;BME280;34170;54.364;18.582;2023-05-19T12:13:07;101715.13;;;15.66;46.71
48364;BME280;34170;54.364;18.582;2023-05-19T12:15:36;101712.53;;;15.16;47.66
48364;BME280;34170;54.364;18.582;2023-05-19T12:18:04;101699.28;;;15.32;47.38
48364;BME280;34170;54.364;18.582;2023-05-19T12:20:31;101719.41;;;15.78;47.33
48364;BME280;34170;54.364;18.582;2023-05-19T12:23:02;101722.25;;;15.96;47.48
48364;BME280;34170;54.364;18.582;2023-05-19T12:25:30;101710.53;;;15.96;46.89
48364;BME280;34170;54.364;18.582;2023-05-19T12:28:00;101724.22;;;16.04;47.34
48364;BME280;34170;54.364;18.582;2023-05-19T12:30:31;101728.91;;;16.22;48.08
48364;BME280;34170;54.364;18.582;2023-05-19T12:33:00;101733.53;;;15.72;49.03
48364;BME280;34170;54.364;18.582;2023-05-19T12:35:30;101724.13;;;15.76;49.59
48364;BME280;34170;54.364;18.582;2023-05-19T12:38:03;101731.41;;;15.86;49.39
48364;BME280;34170;54.364;18.582;2023-05-19T12:40:35;101726.13;;;15.94;51.20
48364;BME280;34170;54.364;18.582;2023-05-19T12:43:04;101734.69;;;16.46;49.76
48364;BME280;34170;54.364;18.582;2023-05-19T12:45:36;101725.97;;;16.80;49.39
48364;BME280;34170;54.364;18.582;2023-05-19T12:48:10;101726.25;;;16.77;49.69
48364;BME280;34170;54.364;18.582;2023-05-19T12:50:37;101717.06;;;16.88;49.36
48364;BME280;34170;54.364;18.582;2023-05-19T12:53:10;101724.97;;;17.27;49.65
48364;BME280;34170;54.364;18.582;2023-05-19T12:55:39;101713.28;;;16.99;49.68
48364;BME280;34170;54.364;18.582;2023-05-19T12:58:10;101723.47;;;16.96;49.82
48364;BME280;34170;54.364;18.582;2023-05-19T13:00:42;101718.09;;;16.87;50.28
48364;BME280;34170;54.364;18.582;2023-05-19T13:03:16;101719.22;;;17.12;51.70
48364;BME280;34170;54.364;18.582;2023-05-19T13:05:47;101715.38;;;16.77;51.87
48364;BME280;34170;54.364;18.582;2023-05-19T13:08:20;101705.16;;;17.17;51.58
48364;BME280;34170;54.364;18.582;2023-05-19T13:10:48;101710.38;;;17.10;49.95
48364;BME280;34170;54.364;18.582;2023-05-19T13:13:17;101721.25;;;16.45;53.12
48364;BME280;34170;54.364;18.582;2023-05-19T13:15:45;101711.25;;;15.98;55.38
48364;BME280;34170;54.364;18.582;2023-05-19T13:18:16;101704.00;;;16.36;54.71
48364;BME280;34170;54.364;18.582;2023-05-19T13:20:44;101714.06;;;16.53;55.59
48364;BME280;34170;54.364;18.582;2023-05-19T13:23:13;101694.03;;;15.79;58.32
48364;BME280;34170;54.364;18.582;2023-05-19T13:25:41;101707.28;;;15.82;57.64